Terminal Aerodrome Forecast
Issued by NWS La Crosse, WI

Home | Current Version | Previous Version | Text Only | Print | Product List | Glossary On
Versions: 1 2 3 4 5 6 7 8 9 10 11 12 13 14 15 16 17 18 19 20 21 22 23 24 25 26 27
000
FTUS43 KARX 242320
TAFLSE
TAF
KLSE 242320Z 2500/2524 19007KT P6SM BKN150
     FM250500 15006KT P6SM BKN100
     FM251000 15007KT P6SM -SHRA VCTS BKN050CB
     FM251700 17011KT P6SM SCT150
     FM252000 18011KT P6SM BKN040=

USA.gov is the U.S. government's official web portal to all federal, state and local government web resources and services.